Time;durP1;ratioP1;P1;durP2;ratioP2;P2;SDS_P1;SDS_P2;PMS_P1;PMS_P2;Temp;Humidity;BMP_temperature;BMP_pressure;BME280_temperature;BME280_humidity;BME280_pressure;Samples;Min_cycle;Max_cycle;Signal;HPM_P1;HPM_P2
2022/02/25 00:00:06;;;;;;;;;1.00;1.00;;;;;17.59;36.39;101945.81;5098640;27;51013;-52
2022/02/25 00:02:33;;;;;;;;;2.00;1.75;;;;;17.58;36.54;101955.06;5098920;27;51067;-52
2022/02/25 00:04:58;;;;;;;;;1.00;1.00;;;;;17.58;36.70;101957.81;5098832;27;51068;-53
2022/02/25 00:07:24;;;;;;;;;3.00;2.00;;;;;17.59;36.54;101962.25;5098458;27;51017;-53
2022/02/25 00:09:49;;;;;;;;;1.50;1.50;;;;;17.57;36.38;101959.69;5098922;27;51286;-50
2022/02/25 00:12:14;;;;;;;;;1.75;0.75;;;;;17.58;36.40;101964.16;5098357;27;51202;-52
2022/02/25 00:14:40;;;;;;;;;1.00;1.00;;;;;17.57;36.57;101967.91;5098683;27;51321;-51
2022/02/25 00:17:05;;;;;;;;;2.00;1.25;;;;;17.57;36.48;101961.59;5098362;27;51029;-50
2022/02/25 00:19:30;;;;;;;;;0.75;0.75;;;;;17.56;36.49;101968.09;5098347;27;51154;-53
2022/02/25 00:21:56;;;;;;;;;0.75;0.75;;;;;17.57;36.32;101967.06;5098057;27;51186;-48
2022/02/25 00:24:21;;;;;;;;;1.50;1.50;;;;;17.56;36.64;101971.69;5097963;27;51336;-50
2022/02/25 00:26:46;;;;;;;;;2.75;0.75;;;;;17.55;36.61;101978.22;5098363;27;51006;-52
2022/02/25 00:29:12;;;;;;;;;1.25;1.25;;;;;17.55;36.64;101975.47;5091654;27;51122;-49
2022/02/25 00:31:37;;;;;;;;;1.25;1.25;;;;;17.56;36.42;101977.16;5077899;27;51175;-51
2022/02/25 00:34:02;;;;;;;;;0.75;0.75;;;;;17.57;36.74;101980.75;5078004;27;51163;-49
2022/02/25 00:36:28;;;;;;;;;0.75;0.75;;;;;17.54;36.76;101981.97;5077262;28;51767;-51
2022/02/25 00:38:53;;;;;;;;;1.50;1.50;;;;;17.55;36.67;101988.31;5078140;27;51025;-48
2022/02/25 00:41:19;;;;;;;;;2.00;0.75;;;;;17.54;36.57;101998.41;5076464;28;51031;-52
2022/02/25 00:43:44;;;;;;;;;1.00;1.00;;;;;17.54;36.66;101987.47;5077688;27;50937;-52
2022/02/25 00:46:10;;;;;;;;;3.00;2.50;;;;;17.54;36.53;101987.47;5077503;28;51289;-51
2022/02/25 00:48:35;;;;;;;;;0.00;0.00;;;;;17.53;36.82;101991.22;5077605;27;50929;-52
2022/02/25 00:51:00;;;;;;;;;3.00;1.25;;;;;17.52;36.52;102000.47;5077259;28;51068;-51
2022/02/25 00:53:26;;;;;;;;;0.50;0.50;;;;;17.52;36.68;102000.47;5077500;27;51177;-52
2022/02/25 00:55:51;;;;;;;;;0.75;0.75;;;;;17.53;36.81;102006.81;5077412;27;51006;-49
2022/02/25 00:58:17;;;;;;;;;1.00;1.00;;;;;17.52;36.42;102013.31;5077474;27;51037;-52
2022/02/25 01:00:42;;;;;;;;;1.00;1.00;;;;;17.51;36.52;102009.72;5077495;27;51223;-52
2022/02/25 01:03:08;;;;;;;;;0.75;0.75;;;;;17.52;36.49;102016.91;5077811;28;51329;-53
2022/02/25 01:05:33;;;;;;;;;1.50;1.50;;;;;17.51;36.89;102008.88;5077225;27;51373;-53
2022/02/25 01:08:05;;;;;;;;;1.75;1.75;;;;;17.51;36.43;102003.41;5077419;27;51025;-49
2022/02/25 01:10:31;;;;;;;;;2.50;1.00;;;;;17.50;36.60;102013.47;5077182;27;51035;-52
2022/02/25 01:12:57;;;;;;;;;1.00;1.00;;;;;17.51;36.57;102012.47;5077822;27;51088;-52
2022/02/25 01:15:22;;;;;;;;;1.00;1.00;;;;;17.51;36.48;102017.09;5077047;27;52763;-48
2022/02/25 01:17:47;;;;;;;;;0.75;0.75;;;;;17.51;36.66;102020.69;5077443;27;51018;-51
2022/02/25 01:20:13;;;;;;;;;1.00;1.00;;;;;17.51;36.81;102030.78;5077107;27;51109;-51
2022/02/25 01:22:38;;;;;;;;;1.25;1.25;;;;;17.51;36.59;102028.06;5077119;27;51406;-52
2022/02/25 01:25:05;;;;;;;;;2.75;1.25;;;;;17.51;36.33;102033.53;5077220;27;51878;-53
2022/02/25 01:27:31;;;;;;;;;1.00;1.00;;;;;17.49;36.63;102030.09;5076998;27;50984;-50
2022/02/25 01:29:57;;;;;;;;;2.75;2.00;;;;;17.50;36.48;102029.06;5089937;27;51025;-52
2022/02/25 01:32:22;;;;;;;;;3.00;1.50;;;;;17.49;36.59;102032.81;5097659;27;51415;-52
2022/02/25 01:34:48;;;;;;;;;0.75;0.75;;;;;17.48;36.71;102031.97;5095755;27;52974;-52
2022/02/25 01:37:13;;;;;;;;;4.75;1.75;;;;;17.48;36.66;102034.72;5097483;27;50931;-49
2022/02/25 01:39:39;;;;;;;;;2.25;2.00;;;;;17.47;36.52;102035.75;5097625;27;51053;-48
2022/02/25 01:42:05;;;;;;;;;2.00;0.50;;;;;17.47;36.46;102035.75;5098086;27;51141;-53
2022/02/25 01:44:31;;;;;;;;;1.50;1.00;;;;;17.47;36.76;102045.84;5097078;27;51001;-53
2022/02/25 01:47:00;;;;;;;;;3.00;1.25;;;;;17.48;36.39;102045.66;5097438;27;51078;-53
2022/02/25 01:49:26;;;;;;;;;1.50;1.50;;;;;17.47;36.58;102045.84;5097274;27;51085;-50
2022/02/25 01:51:57;;;;;;;;;0.50;0.50;;;;;17.47;36.87;102037.63;5097245;27;51084;-50
2022/02/25 01:54:23;;;;;;;;;1.00;1.00;;;;;17.46;36.50;102039.53;5096035;27;50900;-52
2022/02/25 01:56:49;;;;;;;;;0.25;0.25;;;;;17.46;36.47;102034.03;5097328;27;51390;-49
2022/02/25 01:59:15;;;;;;;;;0.50;0.50;;;;;17.46;36.54;102038.66;5097055;27;51056;-52
2022/02/25 02:01:41;;;;;;;;;1.25;1.00;;;;;17.46;36.76;102033.19;5097292;27;51224;-50
2022/02/25 02:04:07;;;;;;;;;0.75;0.75;;;;;17.45;36.65;102037.81;5096908;27;51691;-49
2022/02/25 02:06:33;;;;;;;;;1.50;1.50;;;;;17.44;36.77;102041.59;5096850;27;51477;-51
2022/02/25 02:08:59;;;;;;;;;1.75;1.75;;;;;17.44;36.85;102044.31;5097158;27;51190;-53
2022/02/25 02:11:31;;;;;;;;;3.00;2.00;;;;;17.45;36.83;102042.44;5097240;27;50949;-52
2022/02/25 02:13:57;;;;;;;;;2.75;1.00;;;;;17.45;36.63;102039.69;5096529;27;51027;-53
2022/02/25 02:16:23;;;;;;;;;2.50;1.75;;;;;17.44;36.64;102030.63;5096969;27;51247;-51
2022/02/25 02:18:49;;;;;;;;;1.00;0.50;;;;;17.43;36.64;102033.53;5096945;27;51104;-51
2022/02/25 02:21:15;;;;;;;;;0.75;0.75;;;;;17.43;36.47;102034.41;5096743;27;51359;-53
2022/02/25 02:23:40;;;;;;;;;0.75;0.75;;;;;17.43;36.77;102033.53;5096424;27;51053;-53
2022/02/25 02:26:05;;;;;;;;;2.75;2.00;;;;;17.43;36.23;102033.53;5096795;27;51039;-52
2022/02/25 02:28:31;;;;;;;;;2.00;0.75;;;;;17.42;36.55;102032.69;5096084;27;50944;-48
2022/02/25 02:30:56;;;;;;;;;3.50;1.75;;;;;17.42;36.53;102031.84;5076343;27;51275;-52
2022/02/25 02:33:22;;;;;;;;;1.25;1.00;;;;;17.42;36.84;102031.84;5075942;27;51872;-52
2022/02/25 02:35:49;;;;;;;;;2.00;1.75;;;;;17.41;36.54;102033.72;5074398;28;51079;-52
2022/02/25 02:38:15;;;;;;;;;2.50;1.00;;;;;17.41;36.86;102028.25;5076235;27;51163;-51
2022/02/25 02:40:40;;;;;;;;;0.50;0.25;;;;;17.40;36.67;102034.72;5076400;27;51324;-50
2022/02/25 02:43:07;;;;;;;;;0.50;0.50;;;;;17.41;36.66;102039.19;5075813;27;52854;-51
2022/02/25 02:45:32;;;;;;;;;2.00;0.75;;;;;17.40;36.62;102040.19;5075898;28;51127;-53
2022/02/25 02:47:58;;;;;;;;;0.25;0.00;;;;;17.40;36.35;102036.59;5075948;27;51146;-50
2022/02/25 02:50:23;;;;;;;;;0.75;0.75;;;;;17.40;36.54;102039.34;5075765;27;51288;-49
2022/02/25 02:52:49;;;;;;;;;1.00;0.75;;;;;17.39;36.74;102037.63;5075948;27;51873;-51
2022/02/25 02:55:14;;;;;;;;;1.00;1.00;;;;;17.40;36.75;102031.13;5075934;27;51071;-52
2022/02/25 02:57:40;;;;;;;;;1.00;1.00;;;;;17.38;36.82;102034.03;5075983;27;51069;-50
2022/02/25 03:00:06;;;;;;;;;1.75;0.75;;;;;17.39;36.58;102040.38;5075867;27;50972;-49
2022/02/25 03:02:32;;;;;;;;;0.00;0.00;;;;;17.38;36.52;102030.44;5075318;27;51975;-50
2022/02/25 03:04:57;;;;;;;;;0.50;0.50;;;;;17.38;36.33;102035.94;5075915;27;51290;-52
2022/02/25 03:07:23;;;;;;;;;2.00;0.00;;;;;17.38;36.40;102024.97;5079307;27;51182;-53
2022/02/25 03:09:49;;;;;;;;;0.50;0.50;;;;;17.39;36.35;102032.16;5079729;27;51017;-52
2022/02/25 03:12:15;;;;;;;;;1.00;1.00;;;;;17.38;36.52;102030.44;5079192;27;51800;-53
2022/02/25 03:14:40;;;;;;;;;1.75;0.00;;;;;17.37;36.72;102039.69;5079398;28;51534;-50
2022/02/25 03:17:06;;;;;;;;;0.75;0.50;;;;;17.37;36.60;102035.06;5079501;27;51170;-49
2022/02/25 03:19:35;;;;;;;;;1.00;0.00;;;;;17.37;36.31;102046.03;5079186;27;51285;-51
2022/02/25 03:22:00;;;;;;;;;1.75;0.25;;;;;17.37;36.85;102045.19;5078946;27;51954;-51
2022/02/25 03:24:26;;;;;;;;;1.00;1.00;;;;;17.36;36.69;102043.47;5078614;27;51108;-47
2022/02/25 03:26:51;;;;;;;;;0.00;0.00;;;;;17.36;36.74;102047.06;5079133;27;51014;-53
2022/02/25 03:29:16;;;;;;;;;1.00;1.00;;;;;17.36;36.70;102043.47;5086376;27;51366;-51
2022/02/25 03:31:42;;;;;;;;;1.00;0.50;;;;;17.34;36.77;102035.44;5099189;27;51183;-53
2022/02/25 03:34:07;;;;;;;;;0.75;0.00;;;;;17.35;36.52;102036.28;5099769;27;51249;-51
2022/02/25 03:36:32;;;;;;;;;1.50;0.75;;;;;17.35;36.53;102041.75;5098926;27;51200;-52
2022/02/25 03:38:58;;;;;;;;;0.25;0.25;;;;;17.35;36.57;102047.25;5099828;27;51296;-51
2022/02/25 03:41:23;;;;;;;;;2.50;0.75;;;;;17.35;36.28;102049.97;5098948;27;51012;-49
2022/02/25 03:43:48;;;;;;;;;0.25;0.00;;;;;17.35;36.61;102042.63;5099525;27;51103;-53
2022/02/25 03:46:14;;;;;;;;;1.00;0.50;;;;;17.34;36.44;102045.53;5099404;27;51126;-52
2022/02/25 03:48:39;;;;;;;;;1.00;0.75;;;;;17.35;36.63;102047.25;5099335;27;51334;-51
2022/02/25 03:51:04;;;;;;;;;1.00;0.00;;;;;17.34;36.76;102049.13;5098759;27;51965;-52
2022/02/25 03:53:30;;;;;;;;;0.50;0.25;;;;;17.34;36.62;102056.50;5099081;27;51108;-52
2022/02/25 03:55:55;;;;;;;;;2.25;0.25;;;;;17.33;36.47;102055.63;5099124;27;51173;-52
2022/02/25 03:58:20;;;;;;;;;0.00;0.00;;;;;17.33;36.60;102055.63;5099500;27;51040;-49
2022/02/25 04:00:46;;;;;;;;;1.50;1.00;;;;;17.33;36.30;102055.63;5098990;27;51683;-52
2022/02/25 04:03:11;;;;;;;;;0.25;0.00;;;;;17.33;36.60;102068.47;5099099;27;51044;-47
2022/02/25 04:05:37;;;;;;;;;0.75;0.25;;;;;17.32;36.67;102070.34;5098830;27;51199;-53
2022/02/25 04:08:02;;;;;;;;;0.25;0.00;;;;;17.32;36.59;102067.63;5099357;27;51281;-49
2022/02/25 04:10:28;;;;;;;;;0.25;0.25;;;;;17.31;36.70;102069.50;5098586;27;51685;-51
2022/02/25 04:12:53;;;;;;;;;0.00;0.00;;;;;17.31;36.37;102074.97;5098685;27;51016;-49
2022/02/25 04:15:19;;;;;;;;;0.50;0.50;;;;;17.31;36.88;102074.13;5099020;27;51450;-51
2022/02/25 04:17:44;;;;;;;;;0.00;0.00;;;;;17.31;36.59;102085.94;5098106;27;51131;-50
2022/02/25 04:20:10;;;;;;;;;0.50;0.00;;;;;17.30;36.30;102072.41;5098419;27;51966;-51
2022/02/25 04:22:35;;;;;;;;;0.00;0.00;;;;;17.30;36.50;102072.41;5098348;27;51144;-53
2022/02/25 04:25:01;;;;;;;;;0.00;0.00;;;;;17.29;36.63;102085.22;5099021;27;51148;-51
2022/02/25 04:27:26;;;;;;;;;2.75;0.75;;;;;17.29;36.50;102076.16;5098989;27;51370;-50
2022/02/25 04:29:51;;;;;;;;;1.50;0.00;;;;;17.28;36.62;102080.78;5086068;27;51960;-52
2022/02/25 04:32:17;;;;;;;;;0.00;0.00;;;;;17.29;36.72;102093.44;5077964;27;51017;-50
2022/02/25 04:34:42;;;;;;;;;0.00;0.00;;;;;17.28;36.45;102090.88;5077970;27;51209;-50
2022/02/25 04:37:07;;;;;;;;;0.00;0.00;;;;;17.28;36.39;102089.00;5078371;27;51061;-51
2022/02/25 04:39:33;;;;;;;;;0.75;0.75;;;;;17.28;36.62;102089.00;5077789;27;51837;-51
2022/02/25 04:41:58;;;;;;;;;2.50;1.00;;;;;17.27;36.71;102100.97;5077710;27;51026;-51
2022/02/25 04:44:24;;;;;;;;;1.00;0.00;;;;;17.28;36.53;102110.06;5078174;27;51023;-52
2022/02/25 04:46:49;;;;;;;;;1.00;0.00;;;;;17.27;36.69;102106.47;5078352;27;51856;-52
2022/02/25 04:49:15;;;;;;;;;0.00;0.00;;;;;17.27;36.62;102116.56;5077909;28;51906;-51
2022/02/25 04:51:41;;;;;;;;;1.50;0.00;;;;;17.26;36.80;102110.22;5077824;27;51158;-51
2022/02/25 04:54:07;;;;;;;;;0.25;0.00;;;;;17.26;36.72;102118.44;5077658;27;51255;-53
2022/02/25 04:56:33;;;;;;;;;0.75;0.25;;;;;17.26;36.64;102104.75;5078189;27;51264;-53
2022/02/25 04:58:59;;;;;;;;;0.75;0.00;;;;;17.26;36.60;102104.75;5077657;27;51038;-53
2022/02/25 05:01:24;;;;;;;;;0.00;0.00;;;;;17.26;36.79;102104.75;5077815;27;51022;-53
2022/02/25 05:03:49;;;;;;;;;0.00;0.00;;;;;17.25;36.54;102108.50;5077733;27;51052;-50
2022/02/25 05:06:15;;;;;;;;;0.00;0.00;;;;;17.26;36.70;102114.84;5077650;27;51252;-50
2022/02/25 05:08:41;;;;;;;;;0.00;0.00;;;;;17.25;36.57;102107.66;5077682;27;51556;-52
2022/02/25 05:11:06;;;;;;;;;0.50;0.00;;;;;17.25;36.89;102116.72;5077472;27;51021;-53
2022/02/25 05:13:32;;;;;;;;;0.50;0.50;;;;;17.25;36.88;102124.94;5077423;27;51426;-49
2022/02/25 05:21:25;;;;;;;;;0.00;0.00;;;;;17.23;36.63;102129.75;5077104;28;51072;-53
2022/02/25 05:23:51;;;;;;;;;0.00;0.00;;;;;17.24;36.41;102128.72;5077119;27;51207;-52
2022/02/25 05:26:17;;;;;;;;;0.00;0.00;;;;;17.22;36.76;102136.25;5077623;28;51068;-51
2022/02/25 05:28:42;;;;;;;;;0.25;0.25;;;;;17.22;36.45;102141.72;5079642;27;51782;-53
2022/02/25 05:31:08;;;;;;;;;0.75;0.00;;;;;17.22;36.51;102138.13;5096021;27;51041;-53
2022/02/25 05:33:33;;;;;;;;;0.75;0.75;;;;;17.22;36.81;102141.72;5097784;27;51127;-50
2022/02/25 05:35:59;;;;;;;;;0.00;0.00;;;;;17.23;36.94;102142.59;5097440;27;51204;-53
2022/02/25 05:38:24;;;;;;;;;0.75;0.75;;;;;17.23;36.55;102148.91;5096102;27;53288;-50
2022/02/25 05:40:50;;;;;;;;;0.00;0.00;;;;;17.22;36.54;102143.63;5097565;27;51117;-53
2022/02/25 05:43:15;;;;;;;;;1.25;0.25;;;;;17.23;36.78;102142.59;5097614;27;50973;-50
2022/02/25 05:45:41;;;;;;;;;0.00;0.00;;;;;17.22;36.65;102143.63;5097817;27;51336;-50
2022/02/25 05:48:06;;;;;;;;;1.75;0.00;;;;;17.21;36.83;102144.63;5097077;27;51129;-52
2022/02/25 05:50:31;;;;;;;;;0.25;0.00;;;;;17.22;36.71;102160.03;5096824;27;51180;-52
2022/02/25 05:52:57;;;;;;;;;0.75;0.00;;;;;17.20;36.51;102159.38;5097521;27;51129;-51
2022/02/25 05:55:22;;;;;;;;;0.00;0.00;;;;;17.20;36.63;102157.47;5097413;27;50965;-53
2022/02/25 05:57:48;;;;;;;;;0.00;0.00;;;;;17.20;36.77;102162.94;5097343;27;51922;-51
2022/02/25 06:00:16;;;;;;;;;2.50;0.75;;;;;17.19;36.86;102158.47;5097036;27;51110;-52
2022/02/25 06:02:43;;;;;;;;;1.00;0.50;;;;;17.21;36.84;102172.03;5097225;27;51081;-51
2022/02/25 06:05:09;;;;;;;;;0.00;0.00;;;;;17.19;36.88;102169.44;5097241;27;51248;-50
2022/02/25 06:07:35;;;;;;;;;0.00;0.00;;;;;17.20;36.40;102179.38;5096826;27;51859;-52
2022/02/25 06:10:00;;;;;;;;;0.00;0.00;;;;;17.19;36.51;102188.59;5097147;27;51123;-53
2022/02/25 06:12:26;;;;;;;;;0.75;0.75;;;;;17.19;36.68;102179.53;5095606;27;51190;-52
2022/02/25 06:14:51;;;;;;;;;0.75;0.00;;;;;17.19;36.78;102180.38;5097157;27;51143;-51
2022/02/25 06:17:17;;;;;;;;;0.50;0.00;;;;;17.19;36.86;102185.84;5096783;27;51750;-49
2022/02/25 06:19:42;;;;;;;;;0.75;0.50;;;;;17.18;36.72;102189.63;5096705;27;51051;-53
2022/02/25 06:22:07;;;;;;;;;0.00;0.00;;;;;17.19;36.37;102182.25;5096722;27;51187;-51
2022/02/25 06:24:33;;;;;;;;;0.00;0.00;;;;;17.18;36.92;102188.75;5096711;27;51060;-53
2022/02/25 06:26:58;;;;;;;;;0.75;0.00;;;;;17.19;36.60;102185.00;5096493;27;51858;-49
2022/02/25 06:29:24;;;;;;;;;0.00;0.00;;;;;17.18;36.69;102195.09;5088293;27;51031;-53
2022/02/25 06:31:49;;;;;;;;;0.00;0.00;;;;;17.18;36.70;102210.69;5076065;27;51145;-53
2022/02/25 06:34:14;;;;;;;;;0.00;0.00;;;;;17.16;36.63;102208.09;5076229;27;50973;-50
2022/02/25 06:36:40;;;;;;;;;0.00;0.00;;;;;17.18;36.89;102207.94;5075660;27;51020;-52
2022/02/25 06:39:05;;;;;;;;;0.00;0.00;;;;;17.18;36.77;102210.69;5076157;27;51028;-51
2022/02/25 06:41:31;;;;;;;;;1.75;0.00;;;;;17.18;36.78;102214.28;5074990;27;51371;-51
2022/02/25 06:43:56;;;;;;;;;0.00;0.00;;;;;17.17;36.78;102207.09;5076237;27;51291;-53
2022/02/25 06:46:23;;;;;;;;;0.00;0.00;;;;;17.17;36.53;102220.78;5075567;27;51053;-53
2022/02/25 06:48:49;;;;;;;;;0.00;0.00;;;;;17.17;36.55;102219.91;5075832;27;51379;-50
2022/02/25 06:51:14;;;;;;;;;0.00;0.00;;;;;17.18;36.88;102227.09;5075744;27;51103;-52
2022/02/25 06:53:40;;;;;;;;;0.00;0.00;;;;;17.17;36.61;102219.91;5076161;27;51000;-53
2022/02/25 06:56:06;;;;;;;;;0.50;0.00;;;;;17.16;36.46;102218.19;5075693;27;51596;-52
2022/02/25 06:58:31;;;;;;;;;0.50;0.00;;;;;17.16;36.92;102226.41;5075942;27;51084;-51
2022/02/25 07:00:57;;;;;;;;;2.25;2.00;;;;;17.16;36.69;102223.69;5075631;28;51169;-52
2022/02/25 07:03:23;;;;;;;;;3.00;1.00;;;;;17.15;36.86;102231.03;5075923;27;51174;-53
2022/02/25 07:05:48;;;;;;;;;0.75;0.75;;;;;17.16;36.41;102231.91;5075418;27;52091;-47
2022/02/25 07:08:13;;;;;;;;;0.00;0.00;;;;;17.16;36.89;102235.50;5075730;27;51061;-53
2022/02/25 07:10:39;;;;;;;;;1.00;1.00;;;;;17.15;36.58;102239.25;5075624;27;51068;-53
2022/02/25 07:13:07;;;;;;;;;0.00;0.00;;;;;17.16;36.76;102235.50;5075727;27;51273;-51
2022/02/25 07:15:33;;;;;;;;;0.00;0.00;;;;;17.16;36.98;102242.84;5075158;27;51796;-52
2022/02/25 07:17:59;;;;;;;;;1.25;0.00;;;;;17.16;36.83;102240.13;5075610;27;51270;-54
2022/02/25 07:20:25;;;;;;;;;0.00;0.00;;;;;17.15;36.96;102239.25;5075207;27;51060;-51
2022/02/25 07:22:51;;;;;;;;;0.75;0.75;;;;;17.16;36.85;102230.00;5075577;27;51329;-52
2022/02/25 07:25:17;;;;;;;;;1.50;0.50;;;;;17.15;36.54;102239.25;5075411;28;51789;-53
2022/02/25 07:27:43;;;;;;;;;0.75;0.00;;;;;17.15;36.52;102244.72;5075448;27;51044;-52
2022/02/25 07:30:09;;;;;;;;;0.50;0.50;;;;;17.15;36.41;102244.72;5089386;27;50999;-52
2022/02/25 07:32:35;;;;;;;;;2.00;0.00;;;;;17.15;36.91;102252.09;5095781;27;51327;-53
2022/02/25 07:35:01;;;;;;;;;0.75;0.25;;;;;17.15;36.46;102239.25;5095122;27;51611;-49
2022/02/25 07:37:26;;;;;;;;;1.00;1.00;;;;;17.15;36.81;102228.31;5095666;27;51037;-52
2022/02/25 07:39:51;;;;;;;;;0.00;0.00;;;;;17.15;36.81;102233.78;5095659;27;51651;-53
2022/02/25 07:42:17;;;;;;;;;0.00;0.00;;;;;17.15;36.46;102228.31;5095843;27;51234;-52
2022/02/25 07:44:42;;;;;;;;;2.00;1.00;;;;;17.15;36.62;102232.94;5095480;27;51649;-52
2022/02/25 07:47:07;;;;;;;;;2.00;1.00;;;;;17.15;36.52;102239.25;5095601;27;51051;-53
2022/02/25 07:49:33;;;;;;;;;0.00;0.00;;;;;17.14;36.90;102251.22;5095774;27;51130;-52
2022/02/25 07:51:58;;;;;;;;;3.00;0.75;;;;;17.14;36.99;102256.72;5095549;27;50918;-53
2022/02/25 07:54:25;;;;;;;;;0.00;0.00;;;;;17.16;36.53;102262.03;5098703;27;51143;-51
2022/02/25 07:56:50;;;;;;;;;0.75;0.75;;;;;17.15;36.45;102252.09;5098847;27;51268;-53
2022/02/25 07:59:16;;;;;;;;;1.75;1.00;;;;;17.15;36.98;102261.16;5098740;27;51183;-52
2022/02/25 08:01:42;;;;;;;;;0.25;0.25;;;;;17.15;36.61;102269.38;5098871;27;51350;-50
2022/02/25 08:04:08;;;;;;;;;0.00;0.00;;;;;17.15;36.78;102266.63;5098092;27;51841;-48
2022/02/25 08:06:34;;;;;;;;;0.50;0.50;;;;;17.16;36.45;102275.72;5098682;27;51028;-51
2022/02/25 08:08:59;;;;;;;;;2.25;1.00;;;;;17.16;36.62;102278.44;5098580;27;51055;-47
2022/02/25 08:11:25;;;;;;;;;0.75;0.75;;;;;17.15;36.38;102280.34;5098816;27;51366;-51
2022/02/25 08:13:50;;;;;;;;;0.00;0.00;;;;;17.15;36.60;102280.34;5098551;27;51949;-53
2022/02/25 08:16:16;;;;;;;;;2.00;1.00;;;;;17.16;36.57;102283.94;5098556;27;51082;-51
2022/02/25 08:18:41;;;;;;;;;0.50;0.50;;;;;17.15;36.65;102294.03;5098563;27;50985;-51
2022/02/25 08:21:07;;;;;;;;;1.00;1.00;;;;;17.15;36.97;102280.34;5098283;27;51375;-53
2022/02/25 08:23:32;;;;;;;;;2.00;0.25;;;;;17.16;36.73;102287.53;5098116;27;51925;-53
2022/02/25 08:25:57;;;;;;;;;0.50;0.50;;;;;17.17;36.73;102296.59;5098433;27;51237;-52
2022/02/25 08:28:23;;;;;;;;;0.50;0.50;;;;;17.16;36.68;102301.22;5098411;27;51048;-51
2022/02/25 08:30:48;;;;;;;;;1.00;1.00;;;;;17.15;36.88;102285.81;5078346;27;51044;-51
2022/02/25 08:33:14;;;;;;;;;2.25;1.00;;;;;17.16;36.71;102295.72;5077664;27;51688;-53
2022/02/25 08:35:40;;;;;;;;;1.00;1.00;;;;;17.16;36.71;102297.63;5077220;28;51089;-52
2022/02/25 08:38:06;;;;;;;;;1.00;1.00;;;;;17.16;36.80;102294.88;5077829;27;51332;-49
2022/02/25 08:40:32;;;;;;;;;1.00;1.00;;;;;17.17;36.62;102302.06;5077651;27;51177;-53
2022/02/25 08:42:58;;;;;;;;;4.50;1.00;;;;;17.16;36.79;102300.34;5077478;27;51797;-53
2022/02/25 08:45:23;;;;;;;;;0.50;0.50;;;;;17.17;36.67;102300.19;5077642;27;51156;-52
2022/02/25 08:47:49;;;;;;;;;0.50;0.25;;;;;17.17;36.95;102310.28;5076038;28;51269;-52
2022/02/25 08:50:17;;;;;;;;;0.75;0.75;;;;;17.18;36.44;102309.25;5075971;28;51046;-53
2022/02/25 08:52:44;;;;;;;;;0.50;0.50;;;;;17.17;36.63;102322.09;5077375;27;51016;-49
2022/02/25 08:55:11;;;;;;;;;1.25;0.75;;;;;17.16;36.56;102309.44;5077166;27;51231;-52
2022/02/25 08:57:37;;;;;;;;;4.75;2.00;;;;;17.17;36.53;102323.97;5077471;27;51182;-53
2022/02/25 09:00:24;;;;;;;;;2.50;0.50;;;;;17.18;36.91;102333.91;5077417;27;51176;-52
2022/02/25 09:02:50;;;;;;;;;0.00;0.00;;;;;17.18;36.99;102329.28;5076820;27;52006;-51
2022/02/25 09:05:17;;;;;;;;;3.25;1.75;;;;;17.19;36.80;102332.88;5076753;27;51350;-49
2022/02/25 09:07:44;;;;;;;;;2.25;1.00;;;;;17.19;36.56;102338.34;5077351;27;51104;-52
2022/02/25 09:10:12;;;;;;;;;1.75;0.50;;;;;17.19;36.47;102338.34;5077472;27;51086;-52
2022/02/25 09:12:37;;;;;;;;;2.25;1.25;;;;;17.19;36.77;102336.47;5076457;27;51890;-51
2022/02/25 09:15:06;;;;;;;;;1.00;1.00;;;;;17.19;36.68;102339.22;5075707;28;51005;-52
2022/02/25 09:17:31;;;;;;;;;3.00;2.00;;;;;17.21;36.66;102341.81;5076948;27;51019;-51
2022/02/25 09:19:57;;;;;;;;;2.50;1.25;;;;;17.21;36.92;102345.41;5077048;27;51184;-52
2022/02/25 09:22:22;;;;;;;;;0.50;0.50;;;;;17.22;36.84;102349.84;5076831;27;51488;-52
2022/02/25 09:24:48;;;;;;;;;1.00;1.00;;;;;17.25;36.82;102355.00;5076718;27;51090;-53
2022/02/25 09:27:14;;;;;;;;;1.25;0.25;;;;;17.26;36.66;102356.72;5076971;27;51137;-53
2022/02/25 09:29:39;;;;;;;;;1.50;1.50;;;;;17.27;36.83;102369.38;5085684;27;51463;-53
2022/02/25 09:32:07;;;;;;;;;1.50;1.50;;;;;17.31;36.86;102375.41;5097137;27;51037;-53
2022/02/25 09:34:32;;;;;;;;;1.00;1.00;;;;;17.33;36.68;102372.50;5097096;27;51170;-52
2022/02/25 09:36:58;;;;;;;;;0.00;0.00;;;;;17.36;36.74;102377.63;5096889;27;50982;-51
2022/02/25 09:39:24;;;;;;;;;1.00;1.00;;;;;17.38;36.73;102381.06;5097647;27;51553;-53
2022/02/25 09:41:50;;;;;;;;;1.75;1.50;;;;;17.42;36.37;102382.47;5096469;27;51993;-49
2022/02/25 09:44:16;;;;;;;;;1.00;1.00;;;;;17.45;36.58;102384.88;5097034;27;51343;-53
2022/02/25 09:46:44;;;;;;;;;2.00;2.00;;;;;17.46;36.70;102387.44;5097019;27;50886;-50
2022/02/25 09:49:09;;;;;;;;;1.00;1.00;;;;;17.49;36.60;102389.84;5096385;27;51252;-52
2022/02/25 09:51:36;;;;;;;;;1.00;1.00;;;;;17.51;36.72;102392.44;5096340;27;51055;-53
2022/02/25 09:54:02;;;;;;;;;2.75;1.00;;;;;17.53;36.48;102399.47;5096472;27;51378;-50
2022/02/25 09:56:29;;;;;;;;;1.00;1.00;;;;;17.56;36.38;102401.00;5096449;27;51131;-53
2022/02/25 09:58:54;;;;;;;;;1.25;0.75;;;;;17.57;36.72;102400.84;5096604;27;50959;-50
2022/02/25 10:01:20;;;;;;;;;2.00;1.25;;;;;17.60;36.54;102396.91;5096430;27;51596;-52
2022/02/25 10:03:53;;;;;;;;;2.50;0.75;;;;;17.63;36.50;102403.97;5096225;27;51099;-53
2022/02/25 10:06:18;;;;;;;;;0.75;0.75;;;;;17.65;36.72;102394.53;5096234;27;51190;-53
2022/02/25 10:08:43;;;;;;;;;0.75;0.50;;;;;17.67;36.60;102410.81;5096493;27;51118;-51
2022/02/25 10:11:09;;;;;;;;;3.50;2.00;;;;;17.69;36.31;102411.50;5096087;27;51720;-53
2022/02/25 10:13:35;;;;;;;;;2.00;1.00;;;;;17.71;36.53;102413.06;5096343;27;50928;-53
2022/02/25 10:16:08;;;;;;;;;1.75;1.00;;;;;17.74;36.46;102420.97;5095620;27;51276;-52
2022/02/25 10:18:34;;;;;;;;;1.75;1.00;;;;;17.76;36.09;102421.66;5096861;27;51095;-50
2022/02/25 10:21:07;;;;;;;;;1.25;0.75;;;;;17.79;36.28;102420.47;5095678;27;51996;-53
2022/02/25 10:23:34;;;;;;;;;2.25;1.00;;;;;17.80;36.29;102409.34;5096250;27;51302;-52
2022/02/25 10:26:16;;;;;;;;;3.00;0.00;;;;;17.82;36.33;102418.28;5095028;27;51218;-53
2022/02/25 10:28:48;;;;;;;;;1.75;1.75;;;;;17.83;36.08;102430.94;5093914;27;51036;-50
2022/02/25 10:31:33;;;;;;;;;1.75;0.75;;;;;17.87;36.26;102428.72;5075339;28;51197;-53
2022/02/25 10:34:13;;;;;;;;;2.00;0.50;;;;;17.87;36.05;102418.63;5073565;28;50979;-53
2022/02/25 10:36:45;;;;;;;;;0.50;0.50;;;;;17.88;35.97;102423.06;5075553;27;50994;-52
2022/02/25 10:39:15;;;;;;;;;3.50;2.25;;;;;17.88;36.22;102431.28;5075348;27;51214;-51
2022/02/25 10:41:41;;;;;;;;;3.50;1.25;;;;;17.88;36.23;102433.19;5074984;27;52432;-53
2022/02/25 10:44:07;;;;;;;;;3.00;1.75;;;;;17.88;36.10;102427.69;5075789;27;50967;-48
2022/02/25 10:46:32;;;;;;;;;1.50;1.00;;;;;17.89;36.01;102429.41;5075980;28;51296;-52
2022/02/25 10:49:07;;;;;;;;;2.25;2.00;;;;;17.89;35.94;102429.41;5075689;27;51272;-51
2022/02/25 10:51:36;;;;;;;;;1.25;1.00;;;;;17.90;35.95;102425.63;5075336;28;51146;-53
2022/02/25 10:54:01;;;;;;;;;0.75;0.75;;;;;17.89;35.88;102433.00;5075639;27;51271;-53
2022/02/25 10:56:27;;;;;;;;;1.75;1.75;;;;;17.92;36.26;102433.69;5075516;27;51208;-53
2022/02/25 10:58:56;;;;;;;;;2.25;1.00;;;;;17.89;35.88;102419.31;5075971;27;51388;-52
2022/02/25 11:01:34;;;;;;;;;2.00;2.00;;;;;17.92;35.86;102420.84;5075301;28;51041;-56
2022/02/25 11:04:03;;;;;;;;;1.00;1.00;;;;;17.93;35.82;102429.97;5075235;27;51135;-52
2022/02/25 11:06:31;;;;;;;;;4.75;0.75;;;;;17.93;35.99;102424.47;5075112;27;51262;-51
2022/02/25 11:08:58;;;;;;;;;1.00;1.00;;;;;17.93;35.93;102438.19;5075450;27;51278;-53
2022/02/25 11:11:24;;;;;;;;;3.00;1.75;;;;;17.94;35.81;102434.41;5074998;27;50914;-49
2022/02/25 11:13:50;;;;;;;;;1.50;1.25;;;;;17.94;35.76;102435.28;5075294;27;51181;-53
2022/02/25 11:16:18;;;;;;;;;2.50;1.50;;;;;17.95;35.91;102433.38;5075001;27;51137;-50
2022/02/25 11:18:46;;;;;;;;;1.00;1.00;;;;;17.97;35.72;102436.81;5075062;27;50974;-50
2022/02/25 11:21:12;;;;;;;;;2.25;2.25;;;;;17.97;35.86;102434.06;5074468;27;52878;-53
2022/02/25 11:23:41;;;;;;;;;2.25;1.50;;;;;17.95;35.92;102436.13;5074827;27;50965;-52